createdAt,value
2018-05-10T00:00:03.493Z,99920
2018-05-10T00:02:31.613Z,99920
2018-05-10T00:04:59.778Z,99915
2018-05-10T00:07:27.933Z,99911
2018-05-10T00:09:56.078Z,99912
2018-05-10T00:12:24.214Z,99913
2018-05-10T00:14:53.122Z,99911
2018-05-10T00:17:21.246Z,99911
2018-05-10T00:19:49.389Z,99912
2018-05-10T00:22:17.509Z,99907
2018-05-10T00:24:45.657Z,99906
2018-05-10T00:27:13.824Z,99897
2018-05-10T00:29:41.985Z,99894
2018-05-10T00:32:10.109Z,99893
2018-05-10T00:34:39.022Z,99892
2018-05-10T00:37:07.906Z,99893
2018-05-10T00:39:36.806Z,99896
2018-05-10T00:42:04.933Z,99893
2018-05-10T00:44:33.150Z,99887
2018-05-10T00:47:01.925Z,99882
2018-05-10T00:49:30.848Z,99883
2018-05-10T00:51:58.978Z,99877
2018-05-10T00:54:45.661Z,99878
2018-05-10T00:57:13.814Z,99879
2018-05-10T00:59:41.974Z,99876
2018-05-10T01:02:10.145Z,99874
2018-05-10T01:04:38.293Z,99874
2018-05-10T01:07:06.433Z,99878
2018-05-10T01:09:34.569Z,99869
2018-05-10T01:12:02.714Z,99881
2018-05-10T01:14:30.834Z,99871
2018-05-10T01:16:58.986Z,99867
2018-05-10T01:19:27.115Z,99873
2018-05-10T01:21:55.272Z,99866
2018-05-10T01:24:23.410Z,99867
2018-05-10T01:26:51.580Z,99865
2018-05-10T01:29:19.729Z,99867
2018-05-10T01:31:47.872Z,99867
2018-05-10T01:34:16.043Z,99861
2018-05-10T01:36:44.957Z,99858
2018-05-10T01:39:13.234Z,99859
2018-05-10T01:41:41.376Z,99852
2018-05-10T01:44:10.303Z,99857
2018-05-10T01:46:38.444Z,99855
2018-05-10T01:49:06.598Z,99854
2018-05-10T01:51:34.761Z,99855
2018-05-10T01:54:02.890Z,99862
2018-05-10T01:56:31.036Z,99861
2018-05-10T01:58:59.961Z,99856
2018-05-10T02:01:28.099Z,99862
2018-05-10T02:03:57.010Z,99850
2018-05-10T02:06:25.167Z,99848
2018-05-10T02:08:54.072Z,99857
2018-05-10T02:11:22.247Z,99848
2018-05-10T02:13:50.402Z,99837
2018-05-10T02:16:19.310Z,99847
2018-05-10T02:18:47.482Z,99846
2018-05-10T02:21:15.701Z,99842
2018-05-10T02:23:43.879Z,99845
2018-05-10T02:26:12.067Z,99840
2018-05-10T02:28:40.190Z,99841
2018-05-10T02:31:08.319Z,99835
2018-05-10T02:33:37.217Z,99833
2018-05-10T02:36:06.139Z,99832
2018-05-10T02:38:34.269Z,99824
2018-05-10T02:41:02.430Z,99824
2018-05-10T02:43:30.575Z,99822
2018-05-10T02:45:58.727Z,99823
2018-05-10T02:48:26.861Z,99818
2018-05-10T02:50:55.798Z,99818
2018-05-10T02:53:24.031Z,99821
2018-05-10T02:55:52.219Z,99822
2018-05-10T02:58:20.379Z,99817
2018-05-10T03:00:48.535Z,99821
2018-05-10T03:03:16.682Z,99825
2018-05-10T03:05:44.822Z,99824
2018-05-10T03:08:12.986Z,99827
2018-05-10T03:10:41.114Z,99822
2018-05-10T03:13:09.254Z,99821
2018-05-10T03:15:37.396Z,99822
2018-05-10T03:18:05.570Z,99812
2018-05-10T03:20:33.709Z,99825
2018-05-10T03:23:01.864Z,99813
2018-05-10T03:25:29.993Z,99806
2018-05-10T03:27:58.787Z,99809
2018-05-10T03:30:26.924Z,99804
2018-05-10T03:32:55.061Z,99807
2018-05-10T03:35:23.185Z,99807
2018-05-10T03:37:52.090Z,99807
2018-05-10T03:40:20.213Z,99802
2018-05-10T03:42:48.356Z,99805
2018-05-10T03:45:16.503Z,99801
2018-05-10T03:47:44.654Z,99808
2018-05-10T03:50:13.545Z,99804
2018-05-10T03:52:42.446Z,99808
2018-05-10T03:55:11.354Z,99801
2018-05-10T03:57:39.502Z,99804
2018-05-10T04:00:09.166Z,99809
2018-05-10T04:05:59.076Z,99813
2018-05-10T04:08:49.035Z,99823
2018-05-10T04:11:27.748Z,99822
2018-05-10T04:13:55.887Z,99821
2018-05-10T04:16:24.843Z,99810
2018-05-10T04:18:53.010Z,99817
2018-05-10T04:21:21.165Z,99823
2018-05-10T04:23:49.304Z,99820
2018-05-10T04:26:17.447Z,99809
2018-05-10T04:28:45.598Z,99807
2018-05-10T04:31:13.747Z,99808
2018-05-10T04:33:41.889Z,99800
2018-05-10T04:36:10.816Z,99806
2018-05-10T04:38:38.956Z,99802
2018-05-10T04:41:07.883Z,99809
2018-05-10T04:43:36.186Z,99805
2018-05-10T04:46:04.340Z,99810
2018-05-10T04:48:32.514Z,99806
2018-05-10T04:51:00.670Z,99807
2018-05-10T04:53:28.844Z,99801
2018-05-10T04:55:56.994Z,99796
2018-05-10T04:58:25.130Z,99797
2018-05-10T05:00:53.264Z,99800
2018-05-10T05:03:21.427Z,99803
2018-05-10T05:05:49.550Z,99804
2018-05-10T05:08:17.712Z,99800
2018-05-10T05:10:45.854Z,99795
2018-05-10T05:13:13.993Z,99792
2018-05-10T05:15:42.104Z,99792
2018-05-10T05:18:10.269Z,99800
2018-05-10T05:20:38.407Z,99801
2018-05-10T05:23:07.333Z,99804
2018-05-10T05:25:35.481Z,99804
2018-05-10T05:28:03.653Z,99799
2018-05-10T05:30:31.786Z,99802
2018-05-10T05:32:59.963Z,99810
2018-05-10T05:35:28.106Z,99817
2018-05-10T05:37:56.268Z,99811
2018-05-10T05:40:26.185Z,99819
2018-05-10T05:42:54.341Z,99808
2018-05-10T05:45:22.482Z,99817
2018-05-10T05:47:51.382Z,99808
2018-05-10T05:50:19.514Z,99818
2018-05-10T05:52:48.419Z,99819
2018-05-10T05:55:16.536Z,99810
2018-05-10T05:57:44.664Z,99818
2018-05-10T06:00:12.798Z,99808
2018-05-10T06:02:40.941Z,99818
2018-05-10T06:05:09.064Z,99826
2018-05-10T06:07:37.201Z,99827
2018-05-10T06:10:05.317Z,99819
2018-05-10T06:12:33.534Z,99825
2018-05-10T06:15:01.583Z,99829
2018-05-10T06:17:30.525Z,99831
2018-05-10T06:19:58.649Z,99838
2018-05-10T06:22:27.569Z,99842
2018-05-10T06:24:56.541Z,99843
2018-05-10T06:27:24.640Z,99849
2018-05-10T06:29:52.782Z,99836
2018-05-10T06:32:20.982Z,99837
2018-05-10T06:34:49.125Z,99836
2018-05-10T06:37:18.018Z,99832
2018-05-10T06:39:46.159Z,99837
2018-05-10T06:42:14.289Z,99838
2018-05-10T06:44:42.424Z,99839
2018-05-10T06:47:11.321Z,99840
2018-05-10T06:49:40.234Z,99844
2018-05-10T06:52:08.395Z,99846
2018-05-10T06:54:36.551Z,99841
2018-05-10T06:57:05.451Z,99846
2018-05-10T06:59:33.628Z,99844
2018-05-10T07:02:01.804Z,99842
2018-05-10T07:04:29.963Z,99850
2018-05-10T07:06:58.859Z,99851
2018-05-10T07:09:27.078Z,99844
2018-05-10T07:11:55.176Z,99841
2018-05-10T07:14:23.646Z,99840
2018-05-10T07:16:51.781Z,99842
2018-05-10T07:19:19.940Z,99839
2018-05-10T07:21:48.113Z,99836
2018-05-10T07:24:16.299Z,99839
2018-05-10T07:26:44.445Z,99841
2018-05-10T07:29:12.614Z,99835
2018-05-10T07:31:41.526Z,99838
2018-05-10T07:34:09.687Z,99832
2018-05-10T07:36:37.817Z,99825
2018-05-10T07:39:05.964Z,99830
2018-05-10T07:41:34.245Z,99830
2018-05-10T07:44:02.421Z,99838
2018-05-10T07:46:30.589Z,99830
2018-05-10T07:48:58.731Z,99834
2018-05-10T07:51:27.739Z,99837
2018-05-10T07:53:55.863Z,99837
2018-05-10T07:56:24.030Z,99835
2018-05-10T07:58:52.162Z,99838
2018-05-10T08:01:20.413Z,99831
2018-05-10T08:03:48.511Z,99831
2018-05-10T08:06:16.663Z,99832
2018-05-10T08:08:44.808Z,99829
2018-05-10T08:11:13.719Z,99838
2018-05-10T08:13:41.864Z,99837
2018-05-10T08:16:10.806Z,99835
2018-05-10T08:18:38.929Z,99836
2018-05-10T08:21:07.073Z,99837
2018-05-10T08:23:49.132Z,99837
2018-05-10T08:26:17.369Z,99840
2018-05-10T08:28:45.495Z,99844
2018-05-10T08:31:13.695Z,99829
2018-05-10T08:33:41.829Z,99831
2018-05-10T08:36:09.974Z,99832
2018-05-10T08:38:38.903Z,99832
2018-05-10T08:41:07.043Z,99839
2018-05-10T08:43:36.032Z,99827
2018-05-10T08:46:04.945Z,99818
2018-05-10T08:48:33.077Z,99826
2018-05-10T08:51:02.025Z,99824
2018-05-10T08:53:30.168Z,99826
2018-05-10T08:55:58.294Z,99825
2018-05-10T08:58:26.428Z,99831
2018-05-10T09:00:54.581Z,99832
2018-05-10T09:03:22.747Z,99830
2018-05-10T09:05:51.670Z,99831
2018-05-10T09:08:19.823Z,99831
2018-05-10T09:10:47.990Z,99834
2018-05-10T09:13:16.233Z,99840
2018-05-10T09:15:44.413Z,99836
2018-05-10T09:18:12.576Z,99834
2018-05-10T09:20:40.713Z,99832
2018-05-10T09:23:08.835Z,99834
2018-05-10T09:25:37.759Z,99845
2018-05-10T09:28:05.905Z,99843
2018-05-10T09:30:34.066Z,99848
2018-05-10T09:33:02.972Z,99845
2018-05-10T09:35:31.897Z,99847
2018-05-10T09:38:00.043Z,99849
2018-05-10T09:40:29.000Z,99850
2018-05-10T09:42:57.138Z,99848
2018-05-10T09:45:25.272Z,99853
2018-05-10T09:47:54.232Z,99853
2018-05-10T09:50:22.397Z,99849
2018-05-10T09:52:50.690Z,99855
2018-05-10T09:55:19.017Z,99859
2018-05-10T09:57:47.146Z,99855
2018-05-10T10:00:21.532Z,99863
2018-05-10T10:02:49.658Z,99860
2018-05-10T10:05:17.858Z,99858
2018-05-10T10:07:46.840Z,99858
2018-05-10T10:10:14.993Z,99859
2018-05-10T10:12:43.145Z,99856
2018-05-10T10:15:11.281Z,99862
2018-05-10T10:17:39.522Z,99859
2018-05-10T10:20:07.596Z,99858
2018-05-10T10:22:35.734Z,99864
2018-05-10T10:25:04.629Z,99858
2018-05-10T10:27:33.554Z,99855
2018-05-10T10:30:01.708Z,99860
2018-05-10T10:32:30.553Z,99858
2018-05-10T10:34:58.679Z,99855
2018-05-10T10:37:26.799Z,99859
2018-05-10T10:39:54.957Z,99858
2018-05-10T10:42:23.079Z,99841
2018-05-10T10:44:52.111Z,99847
2018-05-10T10:47:20.311Z,99849
2018-05-10T10:49:48.500Z,99858
2018-05-10T10:52:16.655Z,99860
2018-05-10T10:54:44.881Z,99857
2018-05-10T10:57:13.078Z,99848
2018-05-10T10:59:41.195Z,99851
2018-05-10T11:02:09.363Z,99861
2018-05-10T11:04:37.516Z,99853
2018-05-10T11:07:05.680Z,99851
2018-05-10T11:09:33.865Z,99848
2018-05-10T11:12:02.149Z,99847
2018-05-10T11:14:30.285Z,99856
2018-05-10T11:16:58.502Z,99856
2018-05-10T11:19:26.636Z,99848
2018-05-10T11:21:54.825Z,99845
2018-05-10T11:24:23.722Z,99850
2018-05-10T11:26:51.878Z,99846
2018-05-10T11:29:20.052Z,99845
2018-05-10T11:31:48.247Z,99840
2018-05-10T11:34:16.377Z,99875
2018-05-10T11:36:44.562Z,99848
2018-05-10T11:39:12.794Z,99843
2018-05-10T11:41:40.869Z,99851
2018-05-10T11:44:09.781Z,99851
2018-05-10T11:46:37.983Z,99845
2018-05-10T11:49:06.217Z,99841
2018-05-10T11:51:34.414Z,99834
2018-05-10T11:54:02.562Z,99841
2018-05-10T11:56:30.879Z,99837
2018-05-10T11:58:59.018Z,99834
2018-05-10T12:01:27.157Z,99829
2018-05-10T12:03:56.108Z,99818
2018-05-10T12:06:24.295Z,99811
2018-05-10T12:08:52.601Z,99820
2018-05-10T12:11:21.489Z,99827
2018-05-10T12:13:49.613Z,99841
2018-05-10T12:16:17.742Z,99835
2018-05-10T12:18:46.668Z,99843
2018-05-10T12:21:14.810Z,99843
2018-05-10T12:23:42.982Z,99831
2018-05-10T12:26:11.139Z,99837
2018-05-10T12:28:40.087Z,99829
2018-05-10T12:31:08.225Z,99826
2018-05-10T12:33:36.416Z,99811
2018-05-10T12:36:04.554Z,99826
2018-05-10T12:38:32.689Z,99839
2018-05-10T12:41:00.951Z,99834
2018-05-10T12:43:29.222Z,99839
2018-05-10T12:45:57.386Z,99847
2018-05-10T12:48:25.564Z,99885
2018-05-10T12:50:53.710Z,99904
2018-05-10T12:53:22.661Z,99932
2018-05-10T12:55:51.774Z,99927
2018-05-10T12:58:19.908Z,99918
2018-05-10T13:00:48.138Z,99942
2018-05-10T13:03:16.236Z,99943
2018-05-10T13:05:44.386Z,99950
2018-05-10T13:08:12.553Z,99929
2018-05-10T13:10:41.494Z,99920
2018-05-10T13:13:09.621Z,99947
2018-05-10T13:15:37.787Z,99952
2018-05-10T13:18:06.684Z,99979
2018-05-10T13:20:35.689Z,100002
2018-05-10T13:23:03.839Z,99998
2018-05-10T13:25:32.593Z,100013
2018-05-10T13:28:00.781Z,100030
2018-05-10T13:30:29.067Z,100024
2018-05-10T13:32:57.557Z,100044
2018-05-10T13:35:26.494Z,100057
2018-05-10T13:37:54.697Z,100063
2018-05-10T13:40:23.639Z,100064
2018-05-10T13:42:51.800Z,100088
2018-05-10T13:45:20.022Z,100066
2018-05-10T13:47:48.195Z,100061
2018-05-10T13:50:16.340Z,100051
2018-05-10T13:52:44.525Z,100054
2018-05-10T13:55:12.670Z,100048
2018-05-10T13:57:40.819Z,100069
2018-05-10T14:00:09.732Z,100076
2018-05-10T14:02:37.894Z,100100
2018-05-10T14:05:06.069Z,100101
2018-05-10T14:07:34.232Z,100117
2018-05-10T14:10:03.175Z,100119
2018-05-10T14:12:31.334Z,100128
2018-05-10T14:14:59.566Z,100149
2018-05-10T14:17:28.556Z,100154
2018-05-10T14:19:57.508Z,100156
2018-05-10T14:22:25.674Z,100162
2018-05-10T14:24:53.810Z,100177
2018-05-10T14:27:22.044Z,100186
2018-05-10T14:29:50.216Z,100194
2018-05-10T14:32:18.414Z,100200
2018-05-10T14:34:47.334Z,100203
2018-05-10T14:37:15.484Z,100218
2018-05-10T14:39:44.423Z,100222
2018-05-10T14:42:13.360Z,100239
2018-05-10T14:44:42.312Z,100247
2018-05-10T14:47:10.450Z,100248
2018-05-10T14:49:38.602Z,100263
2018-05-10T14:52:06.747Z,100274
2018-05-10T14:54:34.959Z,100280
2018-05-10T14:57:03.986Z,100288
2018-05-10T14:59:32.146Z,100288
2018-05-10T15:02:00.280Z,100300
2018-05-10T15:04:29.217Z,100293
2018-05-10T15:06:57.608Z,100290
2018-05-10T15:09:25.787Z,100273
2018-05-10T15:11:53.973Z,100283
2018-05-10T15:14:22.140Z,100274
2018-05-10T15:16:50.286Z,100279
2018-05-10T15:19:18.450Z,100282
2018-05-10T15:21:47.620Z,100286
2018-05-10T15:24:15.739Z,100291
2018-05-10T15:26:43.905Z,100280
2018-05-10T15:29:12.134Z,100288
2018-05-10T15:31:41.075Z,100278
2018-05-10T15:34:09.274Z,100286
2018-05-10T15:36:37.426Z,100286
2018-05-10T15:39:05.666Z,100293
2018-05-10T15:41:34.545Z,100302
2018-05-10T15:44:03.464Z,100325
2018-05-10T15:46:31.611Z,100331
2018-05-10T15:48:59.782Z,100342
2018-05-10T15:51:27.930Z,100344
2018-05-10T15:53:56.894Z,100355
2018-05-10T15:56:25.047Z,100369
2018-05-10T15:58:53.235Z,100378
2018-05-10T16:01:21.411Z,100386
2018-05-10T16:03:49.587Z,100398
2018-05-10T16:06:17.756Z,100406
2018-05-10T16:08:45.925Z,100392
2018-05-10T16:11:14.093Z,100401
2018-05-10T16:13:42.270Z,100402
2018-05-10T16:16:10.463Z,100409
2018-05-10T16:18:39.416Z,100418
2018-05-10T16:21:08.341Z,100424
2018-05-10T16:23:36.511Z,100428
2018-05-10T16:26:04.745Z,100421
2018-05-10T16:28:32.923Z,100426
2018-05-10T16:31:01.093Z,100425
2018-05-10T16:33:29.363Z,100438
2018-05-10T16:35:57.453Z,100436
2018-05-10T16:38:25.763Z,100423
2018-05-10T16:40:53.914Z,100423
2018-05-10T16:43:22.174Z,100429
2018-05-10T16:45:50.314Z,100426
2018-05-10T16:48:18.498Z,100433
2018-05-10T16:50:46.650Z,100434
2018-05-10T16:53:15.671Z,100435
2018-05-10T16:55:43.813Z,100445
2018-05-10T16:58:12.733Z,100450
2018-05-10T17:00:40.974Z,100454
2018-05-10T17:03:09.943Z,100446
2018-05-10T17:05:38.295Z,100458
2018-05-10T17:08:06.547Z,100454
2018-05-10T17:10:34.698Z,100465
2018-05-10T17:13:03.636Z,100484
2018-05-10T17:15:31.836Z,100487
2018-05-10T17:17:59.993Z,100494
2018-05-10T17:20:28.194Z,100506
2018-05-10T17:22:57.096Z,100506
2018-05-10T17:25:26.039Z,100512
2018-05-10T17:27:54.197Z,100519
2018-05-10T17:30:22.352Z,100532
2018-05-10T17:32:50.561Z,100539
2018-05-10T17:35:18.741Z,100545
2018-05-10T17:37:46.886Z,100546
2018-05-10T17:40:15.029Z,100545
2018-05-10T17:42:43.951Z,100546
2018-05-10T17:45:12.094Z,100549
2018-05-10T17:47:41.006Z,100564
2018-05-10T17:50:09.220Z,100575
2018-05-10T17:52:37.462Z,100578
2018-05-10T17:55:05.722Z,100588
2018-05-10T17:57:33.914Z,100615
2018-05-10T18:00:02.103Z,100620
2018-05-10T18:02:30.973Z,100624
2018-05-10T18:04:59.137Z,100626
2018-05-10T18:07:27.284Z,100649
2018-05-10T18:09:55.447Z,100626
2018-05-10T18:12:24.363Z,100645
2018-05-10T18:14:52.592Z,100642
2018-05-10T18:17:20.755Z,100651
2018-05-10T18:19:48.935Z,100663
2018-05-10T18:22:17.094Z,100661
2018-05-10T18:24:45.221Z,100656
2018-05-10T18:27:13.357Z,100666
2018-05-10T18:29:41.482Z,100664
2018-05-10T18:32:09.752Z,100675
2018-05-10T18:34:38.031Z,100684
2018-05-10T18:37:06.288Z,100688
2018-05-10T18:39:34.605Z,100653
2018-05-10T18:42:02.798Z,100687
2018-05-10T18:44:30.968Z,100693
2018-05-10T18:46:59.160Z,100693
2018-05-10T18:49:27.302Z,100689
2018-05-10T18:51:55.499Z,100689
2018-05-10T18:54:23.656Z,100697
2018-05-10T18:56:51.878Z,100698
2018-05-10T18:59:20.039Z,100705
2018-05-10T19:01:49.059Z,100709
2018-05-10T19:04:17.256Z,100706
2018-05-10T19:06:45.410Z,100704
2018-05-10T19:09:13.562Z,100700
2018-05-10T19:11:41.737Z,100713
2018-05-10T19:14:09.978Z,100709
2018-05-10T19:16:38.176Z,100718
2018-05-10T19:19:07.237Z,100723
2018-05-10T19:21:35.463Z,100729
2018-05-10T19:24:03.637Z,100729
2018-05-10T19:26:31.884Z,100727
2018-05-10T19:28:59.962Z,100743
2018-05-10T19:31:28.884Z,100753
2018-05-10T19:33:57.015Z,100744
2018-05-10T19:36:26.004Z,100744
2018-05-10T19:38:54.138Z,100737
2018-05-10T19:41:22.325Z,100741
2018-05-10T19:43:50.469Z,100746
2018-05-10T19:46:18.605Z,100758
2018-05-10T19:48:47.608Z,100763
2018-05-10T19:51:16.590Z,100771
2018-05-10T19:53:44.775Z,100777
2018-05-10T19:56:13.018Z,100773
2018-05-10T19:58:41.197Z,100774
2018-05-10T20:01:09.466Z,100777
2018-05-10T20:03:37.642Z,100771
2018-05-10T20:06:06.568Z,100780
2018-05-10T20:08:34.733Z,100786
2018-05-10T20:11:02.958Z,100783
2018-05-10T20:13:31.106Z,100788
2018-05-10T20:15:59.246Z,100784
2018-05-10T20:18:28.164Z,100792
2018-05-10T20:20:56.314Z,100800
2018-05-10T20:23:24.463Z,100806
2018-05-10T20:25:52.610Z,100801
2018-05-10T20:28:20.801Z,100815
2018-05-10T20:30:48.937Z,100815
2018-05-10T20:33:17.082Z,100820
2018-05-10T20:35:45.281Z,100828
2018-05-10T20:38:13.450Z,100816
2018-05-10T20:40:42.466Z,100822
2018-05-10T20:43:10.652Z,100826
2018-05-10T20:45:38.784Z,100808
2018-05-10T20:48:06.918Z,100810
2018-05-10T20:50:35.864Z,100813
2018-05-10T20:53:04.002Z,100811
2018-05-10T20:55:32.153Z,100814
2018-05-10T20:58:03.026Z,100814
2018-05-10T21:00:31.204Z,100817
2018-05-10T21:02:59.357Z,100822
2018-05-10T21:05:27.514Z,100827
2018-05-10T21:07:55.653Z,100838
2018-05-10T21:10:23.879Z,100833
2018-05-10T21:12:52.001Z,100836
2018-05-10T21:15:20.155Z,100846
2018-05-10T21:17:48.430Z,100854
2018-05-10T21:20:16.638Z,100867
2018-05-10T21:22:44.772Z,100862
2018-05-10T21:25:12.928Z,100869
2018-05-10T21:27:41.068Z,100869
2018-05-10T21:30:10.047Z,100874
2018-05-10T21:32:38.343Z,100867
2018-05-10T21:35:07.258Z,100871
2018-05-10T21:37:35.406Z,100884
2018-05-10T21:40:04.336Z,100889
2018-05-10T21:42:32.461Z,100899
2018-05-10T21:45:00.674Z,100898
2018-05-10T21:47:28.825Z,100909
2018-05-10T21:50:04.790Z,100916
2018-05-10T21:52:33.030Z,100912
2018-05-10T21:55:01.953Z,100923
2018-05-10T21:57:30.100Z,100921
2018-05-10T21:59:58.997Z,100918
2018-05-10T22:02:27.925Z,100916
2018-05-10T22:04:56.075Z,100906
2018-05-10T22:07:24.318Z,100916
2018-05-10T22:09:53.232Z,100915
2018-05-10T22:12:21.382Z,100921
2018-05-10T22:14:50.289Z,100921
2018-05-10T22:17:19.216Z,100929
2018-05-10T22:19:47.362Z,100936
2018-05-10T22:22:15.531Z,100934
2018-05-10T22:24:43.680Z,100938
2018-05-10T22:27:11.839Z,100938
2018-05-10T22:29:40.768Z,100945
2018-05-10T22:32:08.953Z,100953
2018-05-10T22:34:37.073Z,100965
2018-05-10T22:37:05.256Z,100956
2018-05-10T22:39:33.400Z,100962
2018-05-10T22:42:01.543Z,100958
2018-05-10T22:44:29.806Z,100961
2018-05-10T22:46:58.628Z,100957
2018-05-10T22:49:26.782Z,100962
2018-05-10T22:51:54.930Z,100965
2018-05-10T22:54:23.876Z,100967
2018-05-10T22:56:52.017Z,100970
2018-05-10T22:59:20.164Z,100977
2018-05-10T23:01:49.067Z,100971
2018-05-10T23:04:17.208Z,100971
2018-05-10T23:06:45.350Z,100966
2018-05-10T23:09:13.529Z,100971
2018-05-10T23:11:41.697Z,100968
2018-05-10T23:14:09.842Z,100970
2018-05-10T23:16:37.980Z,100966
2018-05-10T23:19:06.933Z,100968
2018-05-10T23:21:35.097Z,100972
2018-05-10T23:24:03.241Z,100973
2018-05-10T23:26:31.387Z,100975
2018-05-10T23:29:00.289Z,100975
2018-05-10T23:31:29.219Z,100978
2018-05-10T23:33:57.374Z,100979
2018-05-10T23:36:31.556Z,100983
2018-05-10T23:39:00.490Z,100985
2018-05-10T23:41:28.670Z,100989
2018-05-10T23:43:56.809Z,100989
2018-05-10T23:46:25.703Z,100990
2018-05-10T23:48:53.880Z,101006
2018-05-10T23:51:22.022Z,101001
2018-05-10T23:53:50.948Z,100997
2018-05-10T23:56:19.079Z,100996
2018-05-10T23:58:47.249Z,100997
